LKKL weather

Public forecast

Using degrees Celsius for public forecast. Weather courtesy of forecast.io.

Closest aviation weather report (METAR) to Kladno Airport

Closest report is Václav Havel Airport Prague, 6.6 nm (12.2 km) E. Retrieved 2020/08/14 13:30 UTC (1 hour ago):

LKPR 141330Z VRB03KT 9999 FEW040CB 27/17 Q1012 RETS NOSIG

Closest aviation forecast (TAF) to Kladno Airport

Closest forecast is Václav Havel Airport Prague, 6.6 nm (12.2 km) E. Retrieved 2020/08/14 12:12 UTC (2 hours ago):

TAF LKPR 141100Z 1412/1518 23008KT 9999 SCT040 TEMPO 1412/1422 7000 SHRA SCT035CB PROB30 TEMPO 1412/1421 02010G20KT 4000 TSRA SCT030CB TEMPO 1500/1506 VRB02KT 3000 BR SCT012 BECMG 1508/1510 04006KT TEMPO 1511/1518 7000 SHRA SCT035TCU BKN040